Time;durP1;ratioP1;P1;durP2;ratioP2;P2;SDS_P1;SDS_P2;PMS_P1;PMS_P2;Temp;Humidity;BMP_temperature;BMP_pressure;BME280_temperature;BME280_humidity;BME280_pressure;Samples;Min_cycle;Max_cycle;Signal;HPM_P1;HPM_P2
2022/01/22 00:01:09;;;;;;;26.63;14.20;;;;;;;-0.94;100.00;102809.25;4925093;29;20090;-73
2022/01/22 00:03:34;;;;;;;27.25;13.77;;;;;;;-0.98;100.00;102805.13;4925424;28;20042;-73
2022/01/22 00:06:00;;;;;;;27.15;13.45;;;;;;;-0.99;100.00;102814.34;4918169;29;20051;-73
2022/01/22 00:08:25;;;;;;;25.58;14.70;;;;;;;-1.01;100.00;102808.19;4950539;28;20055;-73
2022/01/22 00:10:52;;;;;;;22.48;13.63;;;;;;;-1.01;100.00;102794.53;4949724;29;20134;-72
2022/01/22 00:15:43;;;;;;;22.90;13.90;;;;;;;-1.07;100.00;102792.47;4942076;29;20087;-73
2022/01/22 00:18:09;;;;;;;24.80;12.95;;;;;;;-1.06;100.00;102794.16;4926655;29;20437;-73
2022/01/22 00:20:36;;;;;;;24.40;13.45;;;;;;;-1.08;100.00;102796.22;4951724;28;20020;-73
2022/01/22 00:23:03;;;;;;;25.55;13.52;;;;;;;-1.12;100.00;102799.25;4962039;28;20094;-72
2022/01/22 00:25:28;;;;;;;26.88;13.48;;;;;;;-1.14;100.00;102793.13;4913381;29;20519;-72
2022/01/22 00:27:54;;;;;;;23.48;13.32;;;;;;;-1.15;100.00;102788.66;4929052;28;20031;-73
2022/01/22 00:30:21;;;;;;;23.50;13.32;;;;;;;-1.21;100.00;102789.31;4929570;28;20054;-72
2022/01/22 00:32:47;;;;;;;25.58;12.80;;;;;;;-1.17;100.00;102785.25;4939728;29;20122;-72
2022/01/22 00:35:13;;;;;;;23.17;13.20;;;;;;;-1.22;100.00;102789.50;4930673;29;20031;-73
2022/01/22 00:37:40;;;;;;;25.40;13.15;;;;;;;-1.26;100.00;102788.09;4960955;28;20027;-73
2022/01/22 00:40:06;;;;;;;23.55;13.15;;;;;;;-1.28;100.00;102790.97;4948172;28;20114;-72
2022/01/22 00:42:33;;;;;;;24.83;13.05;;;;;;;-1.30;100.00;102782.09;4953460;28;20041;-72
2022/01/22 00:44:59;;;;;;;26.75;13.43;;;;;;;-1.31;100.00;102785.84;4930119;28;20381;-73
2022/01/22 00:47:24;;;;;;;23.98;12.65;;;;;;;-1.31;100.00;102791.31;4928598;29;20055;-72
2022/01/22 00:49:50;;;;;;;24.92;13.45;;;;;;;-1.37;100.00;102786.47;4958315;28;20043;-72
2022/01/22 00:52:16;;;;;;;25.33;13.93;;;;;;;-1.40;100.00;102781.34;4957521;28;20024;-72
2022/01/22 00:54:41;;;;;;;27.48;14.18;;;;;;;-1.41;100.00;102787.81;4941256;29;20039;-73
2022/01/22 00:57:07;;;;;;;24.42;13.80;;;;;;;-1.41;100.00;102779.63;4925131;29;20036;-72
2022/01/22 00:59:32;;;;;;;22.65;13.00;;;;;;;-1.42;100.00;102789.69;4973671;28;20032;-72
2022/01/22 01:01:58;;;;;;;25.13;13.40;;;;;;;-1.46;100.00;102784.72;4951982;28;20031;-73
2022/01/22 01:04:23;;;;;;;25.70;14.50;;;;;;;-1.48;100.00;102794.91;4924118;29;20115;-73
2022/01/22 01:06:49;;;;;;;26.55;14.50;;;;;;;-1.49;100.00;102783.16;4948297;28;20328;-72
2022/01/22 01:09:15;;;;;;;23.98;13.20;;;;;;;-1.50;100.00;102786.06;4926997;29;20031;-73
2022/01/22 01:11:54;;;;;;;27.42;13.60;;;;;;;-1.55;100.00;102770.16;4915467;28;20054;-72
2022/01/22 01:14:28;;;;;;;24.92;14.07;;;;;;;-1.55;100.00;102780.22;4918337;29;20035;-73
2022/01/22 01:33:16;;;;;;;22.38;11.82;;;;;;;-1.67;100.00;102776.88;4933473;28;20035;-73
2022/01/22 01:35:42;;;;;;;24.80;12.50;;;;;;;-1.70;100.00;102775.34;4941066;28;20031;-73
2022/01/22 01:38:08;;;;;;;22.55;12.05;;;;;;;-1.68;100.00;102775.16;4899864;29;20034;-72
2022/01/22 01:40:38;;;;;;;23.10;12.02;;;;;;;-1.72;100.00;102774.63;4929554;29;20091;-72
2022/01/22 01:43:18;;;;;;;21.33;12.27;;;;;;;-1.72;100.00;102773.78;4959200;28;20039;-73
2022/01/22 01:45:43;;;;;;;20.50;11.98;;;;;;;-1.70;100.00;102769.88;4947636;29;20086;-73
2022/01/22 01:48:15;;;;;;;20.85;11.73;;;;;;;-1.72;100.00;102776.50;4941950;28;20031;-73
2022/01/22 01:50:42;;;;;;;20.48;11.77;;;;;;;-1.71;100.00;102780.94;4914892;29;20086;-73
2022/01/22 01:55:50;;;;;;;18.98;10.75;;;;;;;-1.75;100.00;102777.69;4931525;29;20062;-72
2022/01/22 01:58:16;;;;;;;20.35;11.73;;;;;;;-1.74;100.00;102767.63;4956531;28;20090;-73
2022/01/22 02:00:41;;;;;;;22.10;12.38;;;;;;;-1.73;100.00;102767.44;4918140;28;20035;-73
2022/01/22 02:03:08;;;;;;;20.00;11.18;;;;;;;-1.72;100.00;102771.06;4942208;28;20031;-73
2022/01/22 02:05:35;;;;;;;18.88;10.90;;;;;;;-1.71;100.00;102783.66;4930452;29;20032;-73
2022/01/22 02:08:00;;;;;;;19.83;11.40;;;;;;;-1.67;100.00;102776.88;4937697;28;20156;-73
2022/01/22 02:10:29;;;;;;;21.52;12.10;;;;;;;-1.67;100.00;102777.75;4930874;28;20039;-73
2022/01/22 02:23:41;;;;;;;18.23;11.50;;;;;;;-1.51;100.00;102766.09;4934363;29;20114;-73
2022/01/22 02:26:08;;;;;;;19.15;11.38;;;;;;;-1.44;100.00;102771.78;4940909;28;20136;-73
2022/01/22 02:28:34;;;;;;;19.55;11.52;;;;;;;-1.43;100.00;102759.84;4917332;28;20036;-73
2022/01/22 02:31:09;;;;;;;21.13;11.40;;;;;;;-1.39;100.00;102766.72;4928704;29;20270;-72
2022/01/22 02:33:48;;;;;;;17.48;11.48;;;;;;;-1.32;100.00;102761.47;4938569;28;20547;-73
2022/01/22 02:41:28;;;;;;;17.88;11.98;;;;;;;-1.22;100.00;102746.72;4902745;29;20528;-73
2022/01/22 02:43:54;;;;;;;20.38;12.00;;;;;;;-1.17;100.00;102749.81;4906620;29;20031;-73
2022/01/22 02:46:23;;;;;;;20.65;11.20;;;;;;;-1.17;100.00;102744.34;4930143;29;20044;-73
2022/01/22 02:48:48;;;;;;;20.92;12.02;;;;;;;-1.08;100.00;102744.41;4932415;29;20031;-73
2022/01/22 02:51:14;;;;;;;19.67;12.00;;;;;;;-1.06;100.00;102745.94;4905260;29;20039;-73
2022/01/22 02:53:39;;;;;;;18.33;11.95;;;;;;;-1.01;100.00;102738.13;4904511;29;20032;-73
2022/01/22 02:56:05;;;;;;;21.52;12.40;;;;;;;-1.00;100.00;102736.25;4874589;29;20024;-73
2022/01/22 02:58:30;;;;;;;18.42;12.18;;;;;;;-0.95;100.00;102731.16;4908056;29;20032;-73
2022/01/22 03:00:56;;;;;;;20.20;11.25;;;;;;;-0.93;100.00;102734.56;4934367;29;20035;-73
2022/01/22 03:03:22;;;;;;;18.13;11.40;;;;;;;-0.90;100.00;102726.91;4906036;29;20057;-73
2022/01/22 03:05:47;;;;;;;19.65;11.90;;;;;;;-0.85;100.00;102720.97;4924810;29;20032;-73
2022/01/22 03:08:14;;;;;;;21.67;11.98;;;;;;;-0.83;100.00;102713.50;4891441;29;20036;-73
2022/01/22 03:10:43;;;;;;;19.00;12.10;;;;;;;-0.78;100.00;102710.25;4891639;29;20099;-73
2022/01/22 03:13:53;;;;;;;18.40;10.77;;;;;;;-0.75;100.00;102716.25;4909533;29;20039;-73
2022/01/22 03:16:08;;;;;;;20.48;11.05;;;;;;;-0.72;100.00;102715.91;4911205;29;20040;-73
2022/01/22 03:29:33;;;;;;;16.15;10.73;;;;;;;-0.57;100.00;102701.63;4925018;29;20046;-73
2022/01/22 03:32:00;;;;;;;17.23;11.18;;;;;;;-0.54;100.00;102707.59;4911248;29;20040;-73
2022/01/22 03:34:27;;;;;;;19.92;10.93;;;;;;;-0.52;100.00;102702.81;4908206;29;20031;-73
2022/01/22 03:36:53;;;;;;;21.83;12.10;;;;;;;-0.50;100.00;102698.06;4907690;29;20039;-73
2022/01/22 03:39:19;;;;;;;15.57;10.63;;;;;;;-0.47;100.00;102697.72;4910533;28;20043;-73
2022/01/22 03:41:44;;;;;;;18.23;11.65;;;;;;;-0.45;100.00;102705.72;4940795;28;20035;-73
2022/01/22 03:44:11;;;;;;;15.52;10.57;;;;;;;-0.44;100.00;102698.41;4941127;29;20039;-73
2022/01/22 03:46:38;;;;;;;20.25;10.73;;;;;;;-0.40;100.00;102700.63;4956993;28;20031;-73
2022/01/22 03:49:04;;;;;;;23.83;11.82;;;;;;;-0.39;100.00;102693.28;4916743;29;20063;-73
2022/01/22 03:51:30;;;;;;;19.50;10.82;;;;;;;-0.38;100.00;102698.59;4941177;29;20070;-73
2022/01/22 03:53:56;;;;;;;16.55;11.05;;;;;;;-0.37;100.00;102697.56;4957727;28;20500;-73
2022/01/22 03:56:24;;;;;;;17.33;10.55;;;;;;;-0.35;100.00;102700.97;4942186;29;20043;-73
2022/01/22 03:58:49;;;;;;;17.27;10.70;;;;;;;-0.33;100.00;102690.75;4925299;29;20381;-73
2022/01/22 04:04:07;;;;;;;18.15;10.25;;;;;;;-0.27;100.00;102692.81;4927056;29;20123;-73
2022/01/22 04:09:01;;;;;;;18.02;10.13;;;;;;;-0.25;100.00;102700.84;4920909;28;20036;-73
2022/01/22 04:11:26;;;;;;;17.08;9.90;;;;;;;-0.25;100.00;102696.22;4963823;28;20102;-73
2022/01/22 04:13:58;;;;;;;15.73;9.95;;;;;;;-0.25;100.00;102698.97;4948536;28;20031;-73
2022/01/22 04:16:23;;;;;;;21.75;10.32;;;;;;;-0.21;100.00;102695.88;4944161;29;20081;-73
2022/01/22 04:27:10;;;;;;;13.50;9.10;;;;;;;-0.16;100.00;102697.09;4940372;29;20039;-73
2022/01/22 04:29:36;;;;;;;16.00;9.88;;;;;;;-0.14;100.00;102683.25;4935335;29;20027;-73
2022/01/22 04:32:01;;;;;;;15.75;10.25;;;;;;;-0.13;100.00;102693.16;4924333;29;20039;-73
2022/01/22 04:34:27;;;;;;;15.55;9.90;;;;;;;-0.12;100.00;102692.13;4927957;29;20063;-73
2022/01/22 04:36:52;;;;;;;13.93;9.02;;;;;;;-0.10;100.00;102699.13;4944137;29;20032;-73
2022/01/22 04:39:21;;;;;;;14.35;9.32;;;;;;;-0.10;100.00;102698.28;4939394;28;20047;-73
2022/01/22 04:41:46;;;;;;;16.38;9.45;;;;;;;-0.06;100.00;102691.44;4941287;28;20031;-73
2022/01/22 04:44:12;;;;;;;16.13;9.60;;;;;;;-0.06;100.00;102692.28;4969491;28;20034;-73
2022/01/22 04:47:14;;;;;;;14.40;9.20;;;;;;;-0.05;100.00;102698.63;4950104;28;20035;-73
2022/01/22 04:57:17;;;;;;;14.57;8.85;;;;;;;0.01;100.00;102688.91;4943772;29;20043;-73
2022/01/22 04:59:43;;;;;;;16.92;8.98;;;;;;;0.02;100.00;102680.50;4950846;28;20034;-73
2022/01/22 05:02:09;;;;;;;17.73;9.18;;;;;;;0.06;100.00;102687.38;4942936;29;20043;-73
2022/01/22 05:04:35;;;;;;;12.68;8.93;;;;;;;0.05;100.00;102691.09;4958015;28;20043;-73
2022/01/22 05:07:00;;;;;;;14.57;8.93;;;;;;;0.07;100.00;102689.06;4959208;28;20043;-73
2022/01/22 05:09:25;;;;;;;13.27;8.43;;;;;;;0.09;100.00;102697.09;4929711;29;20047;-73
2022/01/22 05:11:51;;;;;;;15.40;8.60;;;;;;;0.12;100.00;102685.81;4953036;29;20066;-73
2022/01/22 05:14:17;;;;;;;12.65;7.75;;;;;;;0.12;100.00;102683.94;4910705;29;20081;-73
2022/01/22 05:16:42;;;;;;;16.02;8.65;;;;;;;0.15;100.00;102688.22;4914356;29;20432;-73
2022/01/22 05:19:14;;;;;;;17.52;8.77;;;;;;;0.16;100.00;102688.00;4925834;29;20046;-73
2022/01/22 05:21:41;;;;;;;14.13;8.33;;;;;;;0.17;100.00;102680.69;4960179;28;20451;-73
2022/01/22 05:24:11;;;;;;;16.55;8.52;;;;;;;0.16;100.00;102682.56;4944221;28;20094;-73
2022/01/22 05:37:05;;;;;;;11.50;7.85;;;;;;;0.26;100.00;102678.81;4948227;28;20043;-73
2022/01/22 05:39:31;;;;;;;12.98;8.27;;;;;;;0.26;100.00;102687.00;4922486;28;20047;-73
2022/01/22 05:41:57;;;;;;;13.00;7.80;;;;;;;0.28;100.00;102687.66;4913114;29;20071;-73
2022/01/22 05:44:23;;;;;;;13.13;8.02;;;;;;;0.28;100.00;102680.34;4942137;29;20034;-73
2022/01/22 05:46:50;;;;;;;12.65;7.80;;;;;;;0.30;100.00;102693.81;4949312;29;20031;-73
2022/01/22 05:49:16;;;;;;;12.50;7.38;;;;;;;0.28;100.00;102690.41;4943890;29;20039;-73
2022/01/22 05:51:45;;;;;;;11.32;7.28;;;;;;;0.31;100.00;102692.81;4927309;29;20049;-73
2022/01/22 05:59:37;;;;;;;11.85;7.18;;;;;;;0.31;100.00;102701.88;4934816;28;20035;-73
2022/01/22 06:02:04;;;;;;;12.75;7.65;;;;;;;0.35;100.00;102694.16;4974625;28;20049;-73
2022/01/22 06:04:29;;;;;;;10.80;7.88;;;;;;;0.35;100.00;102707.81;4956371;28;20090;-73
2022/01/22 06:06:55;;;;;;;13.02;7.45;;;;;;;0.36;100.00;102704.06;4959655;28;20031;-73
2022/01/22 06:09:20;;;;;;;12.57;6.95;;;;;;;0.36;100.00;102704.06;4971440;28;20043;-73
2022/01/22 06:11:56;;;;;;;9.70;6.70;;;;;;;0.36;100.00;102706.78;4959509;28;20110;-73
2022/01/22 06:14:22;;;;;;;13.52;7.72;;;;;;;0.37;100.00;102700.31;4926065;29;20037;-73
2022/01/22 06:16:47;;;;;;;11.88;7.72;;;;;;;0.38;100.00;102697.41;4965072;28;20529;-73
2022/01/22 06:19:13;;;;;;;14.07;7.47;;;;;;;0.41;100.00;102701.66;4964685;28;20031;-73
2022/01/22 06:21:38;;;;;;;11.32;7.72;;;;;;;0.40;100.00;102700.81;4958397;29;20567;-73
2022/01/22 06:24:04;;;;;;;14.48;7.82;;;;;;;0.43;100.00;102695.00;4929715;29;20031;-73
2022/01/22 06:26:30;;;;;;;13.57;7.47;;;;;;;0.43;100.00;102696.88;4942871;28;20530;-73
2022/01/22 06:28:55;;;;;;;11.80;7.18;;;;;;;0.44;100.00;102693.13;4970199;28;20035;-73
2022/01/22 06:31:21;;;;;;;17.92;8.50;;;;;;;0.46;100.00;102698.41;4927632;29;20046;-73
2022/01/22 06:33:46;;;;;;;15.70;7.63;;;;;;;0.45;100.00;102692.09;4912779;28;20042;-74
2022/01/22 06:36:12;;;;;;;14.88;7.93;;;;;;;0.47;100.00;102687.28;4954363;28;20043;-73
2022/01/22 06:38:38;;;;;;;14.93;7.38;;;;;;;0.50;100.00;102692.41;4942021;29;20515;-73
2022/01/22 06:43:47;;;;;;;18.15;8.35;;;;;;;0.51;100.00;102696.03;4958850;28;20043;-73
2022/01/22 06:46:13;;;;;;;16.25;9.15;;;;;;;0.51;100.00;102691.41;4926990;28;20031;-73
2022/01/22 06:48:38;;;;;;;14.07;8.35;;;;;;;0.55;100.00;102698.22;4957097;29;20070;-73
2022/01/22 06:51:04;;;;;;;17.38;8.45;;;;;;;0.55;100.00;102700.94;4950558;28;20377;-73
2022/01/22 06:53:29;;;;;;;17.73;8.93;;;;;;;0.55;100.00;102692.75;4958656;28;20031;-74
2022/01/22 06:56:00;;;;;;;17.73;9.45;;;;;;;0.56;100.00;102699.94;4956570;28;20109;-73
2022/01/22 06:58:26;;;;;;;15.85;8.25;;;;;;;0.59;100.00;102694.13;4978900;28;20143;-73
2022/01/22 07:00:52;;;;;;;13.55;8.23;;;;;;;0.60;100.00;102701.28;4947043;28;20034;-73
2022/01/22 07:03:17;;;;;;;19.02;9.18;;;;;;;0.61;100.00;102703.00;4955969;28;20031;-73
2022/01/22 07:05:43;;;;;;;15.95;8.27;;;;;;;0.61;100.00;102696.66;4926417;28;20031;-73
2022/01/22 07:08:08;;;;;;;15.35;8.52;;;;;;;0.62;100.00;102691.03;4910102;29;20523;-73
2022/01/22 07:10:34;;;;;;;15.75;8.77;;;;;;;0.63;100.00;102690.00;4940838;28;20038;-73
2022/01/22 07:12:59;;;;;;;17.42;8.15;;;;;;;0.66;100.00;102697.84;4935175;28;20065;-73
2022/01/22 07:15:25;;;;;;;15.32;9.00;;;;;;;0.65;100.00;102701.63;4928416;29;20046;-73
2022/01/22 07:17:50;;;;;;;13.38;7.93;;;;;;;0.68;100.00;102702.31;4923725;28;20038;-73
2022/01/22 07:20:24;;;;;;;15.20;8.27;;;;;;;0.70;100.00;102702.97;4911717;29;20042;-73
2022/01/22 07:22:53;;;;;;;15.82;8.30;;;;;;;0.69;100.00;102701.28;4927214;29;20397;-73
2022/01/22 07:25:19;;;;;;;21.52;8.65;;;;;;;0.72;100.00;102709.13;4949487;28;20042;-73
2022/01/22 07:27:45;;;;;;;22.60;11.20;;;;;;;0.74;100.00;102712.53;4956053;28;20558;-73
2022/01/22 07:30:11;;;;;;;20.33;10.27;;;;;;;0.72;100.00;102709.13;4927458;29;20611;-73
2022/01/22 07:32:41;;;;;;;23.20;9.73;;;;;;;0.74;100.00;102710.66;4943608;29;20042;-77
2022/01/22 07:35:06;;;;;;;17.00;9.50;;;;;;;0.75;100.00;102715.09;4915756;29;20123;-74
2022/01/22 07:37:32;;;;;;;19.15;9.68;;;;;;;0.75;100.00;102714.25;4940033;29;20496;-74
2022/01/22 07:39:58;;;;;;;18.40;10.13;;;;;;;0.76;100.00;102715.97;4925508;28;20221;-74
2022/01/22 07:42:23;;;;;;;19.23;9.80;;;;;;;0.77;100.00;102720.41;4941842;29;20488;-74
2022/01/22 07:44:48;;;;;;;21.85;9.23;;;;;;;0.78;100.00;102722.97;4953122;28;20039;-74
2022/01/22 07:47:14;;;;;;;22.85;10.90;;;;;;;0.77;100.00;102720.41;4913954;29;20031;-74
2022/01/22 07:49:40;;;;;;;19.27;10.10;;;;;;;0.80;100.00;102722.78;4941509;29;20031;-74
2022/01/22 07:52:06;;;;;;;17.20;10.25;;;;;;;0.81;100.00;102719.03;4974473;28;20050;-74
2022/01/22 07:54:32;;;;;;;20.00;11.25;;;;;;;0.81;100.00;102727.25;4925411;29;20089;-74
2022/01/22 07:56:58;;;;;;;20.67;11.02;;;;;;;0.82;100.00;102723.47;4927671;29;20058;-74
2022/01/22 07:59:23;;;;;;;21.80;10.88;;;;;;;0.80;100.00;102723.63;4947771;28;20395;-74
2022/01/22 08:01:49;;;;;;;21.65;11.07;;;;;;;0.80;100.00;102729.09;4970646;28;20429;-74
2022/01/22 08:04:16;;;;;;;21.05;11.20;;;;;;;0.81;100.00;102724.50;4970100;28;20042;-74
2022/01/22 08:06:41;;;;;;;20.10;10.93;;;;;;;0.83;100.00;102733.38;4924932;29;20027;-74
2022/01/22 08:09:07;;;;;;;21.23;11.60;;;;;;;0.82;100.00;102732.50;4956222;29;20046;-74
2022/01/22 08:11:32;;;;;;;22.02;13.20;;;;;;;0.84;100.00;102724.16;4954869;28;20035;-74
2022/01/22 08:13:58;;;;;;;21.70;13.25;;;;;;;0.84;100.00;102732.34;4955561;28;20081;-74
2022/01/22 08:16:24;;;;;;;20.92;13.70;;;;;;;0.85;100.00;102728.59;4923967;29;20043;-74
2022/01/22 08:18:49;;;;;;;22.45;13.73;;;;;;;0.86;100.00;102728.41;4948482;28;20046;-74
2022/01/22 08:21:15;;;;;;;24.35;13.70;;;;;;;0.89;100.00;102729.91;4924190;29;20038;-74
2022/01/22 08:23:40;;;;;;;24.02;13.27;;;;;;;0.89;100.00;102736.28;4969155;28;20047;-74
2022/01/22 08:26:09;;;;;;;26.63;14.38;;;;;;;0.91;100.00;102744.28;4941754;28;20085;-73
2022/01/22 08:28:53;;;;;;;20.02;13.18;;;;;;;0.93;100.00;102728.56;4926492;28;20031;-73
2022/01/22 08:36:29;;;;;;;19.65;12.45;;;;;;;1.04;100.00;102750.06;4933700;29;20035;-74
2022/01/22 08:38:54;;;;;;;23.23;13.20;;;;;;;1.05;100.00;102749.03;4956025;28;20031;-74
2022/01/22 08:41:20;;;;;;;20.40;12.90;;;;;;;1.09;100.00;102741.34;4960981;28;20054;-74
2022/01/22 08:43:45;;;;;;;21.25;12.77;;;;;;;1.11;100.00;102736.53;4952088;29;20035;-74
2022/01/22 08:46:11;;;;;;;20.05;11.98;;;;;;;1.12;100.00;102738.25;4975498;28;20039;-72
2022/01/22 08:48:36;;;;;;;22.83;12.60;;;;;;;1.16;100.00;102734.09;4959799;28;20476;-71
2022/01/22 08:51:02;;;;;;;19.63;12.30;;;;;;;1.18;100.00;102734.78;4959084;29;20027;-72
2022/01/22 08:53:27;;;;;;;20.98;12.10;;;;;;;1.22;100.00;102741.59;4928409;28;20523;-72
2022/01/22 08:55:53;;;;;;;22.05;12.70;;;;;;;1.24;100.00;102738.69;4913997;28;20086;-72
2022/01/22 08:58:18;;;;;;;24.58;13.88;;;;;;;1.29;100.00;102750.81;4932423;29;20039;-72
2022/01/22 09:00:45;;;;;;;23.58;14.23;;;;;;;1.32;100.00;102738.66;4973764;28;20027;-71
2022/01/22 09:03:11;;;;;;;23.67;13.35;;;;;;;1.36;100.00;102748.22;4918624;29;20039;-71
2022/01/22 09:05:37;;;;;;;19.80;12.30;;;;;;;1.40;100.00;102751.47;4943662;29;20038;-71
2022/01/22 09:08:04;;;;;;;19.95;12.38;;;;;;;1.42;100.00;102750.25;4951175;28;20048;-71
2022/01/22 09:10:29;;;;;;;21.80;12.68;;;;;;;1.46;100.00;102748.00;4933604;29;20194;-72
2022/01/22 09:12:55;;;;;;;18.70;11.80;;;;;;;1.49;100.00;102753.13;4930339;28;20027;-71
2022/01/22 09:15:20;;;;;;;18.38;12.45;;;;;;;1.52;100.00;102755.50;4960579;28;20039;-71
2022/01/22 09:17:48;;;;;;;20.63;11.73;;;;;;;1.57;100.00;102758.56;4938301;29;20035;-71
2022/01/22 09:20:29;;;;;;;20.35;11.45;;;;;;;1.61;100.00;102759.91;4909611;29;20043;-72
2022/01/22 09:22:55;;;;;;;20.75;11.45;;;;;;;1.66;100.00;102756.63;4940541;29;20031;-72
2022/01/22 09:25:20;;;;;;;19.10;11.40;;;;;;;1.70;100.00;102749.75;4958545;28;20031;-72
2022/01/22 09:27:46;;;;;;;18.73;11.50;;;;;;;1.72;100.00;102734.84;4929787;28;20031;-72
2022/01/22 09:30:12;;;;;;;18.83;11.65;;;;;;;1.76;100.00;102741.69;4922189;29;20043;-72
2022/01/22 09:32:37;;;;;;;17.25;11.00;;;;;;;1.81;100.00;102741.13;4956343;28;20400;-71
2022/01/22 09:35:03;;;;;;;24.08;12.48;;;;;;;1.86;100.00;102740.56;4957435;28;20090;-71
2022/01/22 09:37:28;;;;;;;17.40;11.82;;;;;;;1.91;100.00;102741.75;4941241;28;20417;-71
2022/01/22 09:39:54;;;;;;;23.67;12.70;;;;;;;1.95;100.00;102745.84;4910971;29;20039;-72
2022/01/22 09:42:19;;;;;;;19.42;11.52;;;;;;;1.98;100.00;102750.94;4911444;29;20076;-71
2022/01/22 09:44:45;;;;;;;19.25;11.43;;;;;;;2.04;100.00;102748.53;4936896;29;20035;-72
2022/01/22 09:47:11;;;;;;;17.35;11.48;;;;;;;2.07;100.00;102753.63;4928045;28;20037;-72
2022/01/22 09:49:36;;;;;;;21.92;11.50;;;;;;;2.14;100.00;102749.09;4956375;28;20039;-72
2022/01/22 09:52:02;;;;;;;21.90;11.13;;;;;;;2.16;100.00;102758.84;4919702;29;20039;-72
2022/01/22 09:54:27;;;;;;;21.50;11.70;;;;;;;2.23;100.00;102764.47;4917594;29;20043;-72
2022/01/22 09:56:54;;;;;;;20.65;10.57;;;;;;;2.28;100.00;102763.91;4930705;29;20031;-72
2022/01/22 09:59:19;;;;;;;25.33;12.27;;;;;;;2.33;100.00;102764.22;4929387;28;20488;-72
2022/01/22 10:01:45;;;;;;;19.90;12.23;;;;;;;2.38;100.00;102761.78;4929148;29;20040;-72
2022/01/22 10:04:10;;;;;;;19.85;11.75;;;;;;;2.42;100.00;102758.50;4917108;29;20042;-72
2022/01/22 10:06:50;;;;;;;24.63;14.25;;;;;;;2.53;100.00;102757.16;4926760;28;20047;-72
2022/01/22 10:09:25;;;;;;;26.25;13.38;;;;;;;2.58;100.00;102751.97;4928482;29;20031;-72
2022/01/22 10:12:15;;;;;;;25.90;14.13;;;;;;;2.66;100.00;102760.13;4940689;29;20035;-72
2022/01/22 10:15:08;;;;;;;23.88;13.80;;;;;;;2.72;100.00;102753.03;4957558;28;20034;-72
2022/01/22 10:17:52;;;;;;;30.52;14.82;;;;;;;2.77;100.00;102764.31;4947019;28;20031;-72
2022/01/22 10:20:21;;;;;;;26.65;13.98;;;;;;;2.81;100.00;102762.88;4950416;28;20075;-72
2022/01/22 10:22:49;;;;;;;31.25;15.52;;;;;;;2.88;100.00;102769.34;4950896;28;20392;-72
2022/01/22 10:25:38;;;;;;;25.55;15.15;;;;;;;2.94;100.00;102780.63;4937518;28;20035;-72
2022/01/22 10:28:05;;;;;;;28.58;15.35;;;;;;;2.98;100.00;102776.44;4927874;29;20046;-72
2022/01/22 10:30:38;;;;;;;30.10;16.08;;;;;;;3.03;100.00;102776.72;4914406;29;20038;-72
2022/01/22 10:33:26;;;;;;;29.45;15.50;;;;;;;3.08;100.00;102780.63;4922291;28;20504;-72
2022/01/22 10:35:52;;;;;;;28.50;14.63;;;;;;;3.14;100.00;102787.25;4927479;29;20108;-72
2022/01/22 10:38:18;;;;;;;32.08;16.02;;;;;;;3.20;100.00;102791.97;4957633;28;20476;-72
2022/01/22 10:40:44;;;;;;;30.38;15.77;;;;;;;3.24;100.00;102787.81;4940371;28;20047;-72
2022/01/22 10:43:13;;;;;;;26.75;14.63;;;;;;;3.29;100.00;102782.63;4936321;28;20555;-72
2022/01/22 10:45:42;;;;;;;28.83;16.35;;;;;;;3.34;100.00;102787.53;4958458;28;20035;-72
2022/01/22 10:48:18;;;;;;;25.33;15.35;;;;;;;3.39;100.00;102786.97;4916211;29;20449;-72
2022/01/22 10:50:44;;;;;;;26.60;16.02;;;;;;;3.44;100.00;102779.00;4939556;29;20031;-72
2022/01/22 10:53:10;;;;;;;28.67;15.70;;;;;;;3.51;100.00;102790.91;4918351;28;20034;-72
2022/01/22 10:56:07;;;;;;;27.25;15.05;;;;;;;3.54;100.00;102779.56;4928334;29;20035;-68
2022/01/22 10:58:33;;;;;;;30.60;16.60;;;;;;;3.63;100.00;102777.56;4908768;28;20050;-74
2022/01/22 11:01:04;;;;;;;28.40;16.75;;;;;;;3.66;100.00;102771.69;4971691;28;20496;-73
2022/01/22 11:03:29;;;;;;;35.17;17.27;;;;;;;3.70;100.00;102768.31;4943354;28;20039;-73
2022/01/22 11:05:56;;;;;;;35.47;15.35;;;;;;;3.80;100.00;102765.28;4961510;28;20067;-72
2022/01/22 11:08:21;;;;;;;32.85;15.85;;;;;;;3.85;100.00;102764.72;4942996;28;20035;-73
2022/01/22 11:10:47;;;;;;;30.20;16.23;;;;;;;3.91;100.00;102759.28;4909293;29;20491;-73
2022/01/22 11:13:13;;;;;;;45.40;16.58;;;;;;;3.96;100.00;102761.44;4948514;28;20488;-73
2022/01/22 11:15:39;;;;;;;28.48;17.02;;;;;;;4.01;100.00;102764.44;4926819;29;20117;-73
2022/01/22 11:18:05;;;;;;;28.75;16.60;;;;;;;4.03;100.00;102751.34;4944518;28;20085;-79
2022/01/22 11:20:31;;;;;;;29.17;17.15;;;;;;;4.07;100.00;102751.81;4943549;29;20030;-76
2022/01/22 11:22:56;;;;;;;29.17;15.30;;;;;;;4.13;100.00;102748.31;4943665;28;20042;-77
2022/01/22 11:25:22;;;;;;;26.25;14.98;;;;;;;4.18;100.00;102740.28;4910117;29;20038;-73
2022/01/22 11:27:47;;;;;;;31.08;17.20;;;;;;;4.21;100.00;102743.50;4940988;29;20035;-78
2022/01/22 11:30:13;;;;;;;32.65;16.52;;;;;;;4.25;100.00;102744.81;4929711;29;20039;-76
2022/01/22 11:32:48;;;;;;;35.13;16.35;;;;;;;4.24;100.00;102743.13;4925290;28;20091;-76
2022/01/22 11:35:14;;;;;;;35.65;16.27;;;;;;;4.30;100.00;102743.38;4923345;29;20099;-74
2022/01/22 11:37:47;;;;;;;32.10;15.88;;;;;;;4.29;100.00;102742.53;4938338;29;20443;-75
2022/01/22 11:40:19;;;;;;;32.45;15.73;;;;;;;4.35;100.00;102732.63;4940124;29;20040;-78
2022/01/22 11:43:09;;;;;;;26.23;15.35;;;;;;;4.36;100.00;102742.56;4931988;29;20440;-78
2022/01/22 11:45:46;;;;;;;26.60;14.90;;;;;;;4.39;100.00;102734.78;4946053;28;20041;-78
2022/01/22 11:48:25;;;;;;;28.80;15.00;;;;;;;4.44;100.00;102732.28;4942011;28;20043;-69
2022/01/22 11:50:52;;;;;;;29.40;14.95;;;;;;;4.45;100.00;102724.88;4956725;28;20126;-72
2022/01/22 11:53:30;;;;;;;29.40;15.65;;;;;;;4.50;100.00;102727.03;4929900;29;20035;-71
2022/01/22 11:56:11;;;;;;;26.15;14.88;;;;;;;4.55;100.00;102732.78;4959937;28;20523;-72
2022/01/22 11:58:55;;;;;;;26.75;13.88;;;;;;;4.55;100.00;102719.88;4970463;28;20090;-72
2022/01/22 12:01:39;;;;;;;27.65;14.15;;;;;;;4.59;100.00;102721.16;4968709;28;20121;-73
2022/01/22 12:04:06;;;;;;;26.17;13.85;;;;;;;4.64;100.00;102717.81;4955016;28;20030;-70
2022/01/22 12:06:31;;;;;;;29.70;14.27;;;;;;;4.64;100.00;102726.94;4953571;28;20038;-70
2022/01/22 12:09:06;;;;;;;27.80;14.02;;;;;;;4.65;100.00;102717.63;4941447;29;20099;-73
2022/01/22 12:14:51;;;;;;;27.95;14.32;;;;;;;4.70;100.00;102723.38;4957544;28;20031;-71
2022/01/22 12:17:28;;;;;;;;;;;;;;;4.74;100.00;102720.25;4958532;28;20031;-75
2022/01/22 12:20:44;;;;;;;21.73;13.13;;;;;;;4.73;100.00;102732.28;4941708;29;19980;-75
2022/01/22 12:22:42;;;;;;;22.98;12.23;;;;;;;4.75;100.00;102721.94;4939659;28;20071;-74
2022/01/22 12:25:14;;;;;;;25.95;13.65;;;;;;;4.78;100.00;102732.53;4958959;28;20043;-74
2022/01/22 12:27:50;;;;;;;26.80;13.55;;;;;;;4.80;100.00;102724.94;4953901;29;20062;-74
2022/01/22 12:30:17;;;;;;;25.98;13.48;;;;;;;4.79;100.00;102718.56;4923056;29;20115;-74
2022/01/22 12:32:44;;;;;;;29.75;14.07;;;;;;;4.78;100.00;102716.00;4941633;28;20035;-74
2022/01/22 12:35:12;;;;;;;25.48;13.93;;;;;;;4.81;100.00;102721.13;4926740;29;20122;-73
2022/01/22 12:37:41;;;;;;;26.45;13.60;;;;;;;4.81;100.00;102721.13;4940751;29;20054;-73
2022/01/22 12:40:07;;;;;;;24.33;12.88;;;;;;;4.83;100.00;102714.34;4944596;28;20469;-74
2022/01/22 12:43:02;;;;;;;26.13;13.50;;;;;;;4.80;100.00;102714.75;4956004;28;20455;-74
2022/01/22 12:45:27;;;;;;;21.80;12.57;;;;;;;4.85;100.00;102708.66;4940921;29;20512;-73
2022/01/22 12:47:54;;;;;;;23.33;11.70;;;;;;;4.84;100.00;102704.19;4940054;28;20039;-73
2022/01/22 12:50:28;;;;;;;23.88;11.77;;;;;;;4.85;100.00;102700.41;4935545;29;20031;-73